createdAt,value
2023-05-10T00:01:49.961Z,10.26
2023-05-10T00:04:18.186Z,10.27
2023-05-10T00:06:46.510Z,10.25
2023-05-10T00:09:15.392Z,10.23
2023-05-10T00:11:43.567Z,10.21
2023-05-10T00:14:12.725Z,10.19
2023-05-10T00:16:40.985Z,10.16
2023-05-10T00:19:09.293Z,10.14
2023-05-10T00:21:37.502Z,10.14
2023-05-10T00:24:05.968Z,10.13
2023-05-10T00:26:34.264Z,10.14
2023-05-10T00:29:02.451Z,10.13
2023-05-10T00:31:30.583Z,10.13
2023-05-10T00:33:59.298Z,10.14
2023-05-10T00:36:27.566Z,10.13
2023-05-10T00:38:55.674Z,10.13
2023-05-10T00:41:23.934Z,10.12
2023-05-10T00:43:52.303Z,10.04
2023-05-10T00:46:20.663Z,10.09
2023-05-10T00:48:49.126Z,10.09
2023-05-10T00:51:17.510Z,10.08
2023-05-10T00:53:50.636Z,10.07
2023-05-10T00:56:19.038Z,10.06
2023-05-10T00:58:47.165Z,10.04
2023-05-10T01:01:15.459Z,10.03
2023-05-10T01:03:43.954Z,10.02
2023-05-10T01:06:12.404Z,10.00
2023-05-10T01:08:40.965Z,9.99
2023-05-10T01:11:09.327Z,9.98
2023-05-10T01:13:40.684Z,9.97
2023-05-10T01:16:09.276Z,9.96
2023-05-10T01:18:41.481Z,9.95
2023-05-10T01:21:31.204Z,9.93
2023-05-10T01:24:09.384Z,9.86
2023-05-10T01:26:52.544Z,9.85
2023-05-10T01:29:42.245Z,9.81
2023-05-10T01:32:13.469Z,9.76
2023-05-10T01:34:54.357Z,9.73
2023-05-10T01:37:48.662Z,9.71
2023-05-10T01:40:20.100Z,9.66
2023-05-10T01:42:53.827Z,9.63
2023-05-10T01:45:48.004Z,9.61
2023-05-10T01:48:17.327Z,9.55
2023-05-10T01:50:47.565Z,9.52
2023-05-10T01:53:19.935Z,9.50
2023-05-10T01:55:53.552Z,9.45
2023-05-10T01:58:23.784Z,9.44
2023-05-10T02:00:54.308Z,9.40
2023-05-10T02:03:25.218Z,9.36
2023-05-10T02:05:55.664Z,9.33
2023-05-10T02:08:25.535Z,9.31
2023-05-10T02:10:57.654Z,9.29
2023-05-10T02:13:27.366Z,9.27
2023-05-10T02:15:56.808Z,9.27
2023-05-10T02:18:28.149Z,9.27
2023-05-10T02:20:59.051Z,9.26
2023-05-10T02:23:27.689Z,9.25
2023-05-10T02:25:58.043Z,9.24
2023-05-10T02:28:27.684Z,9.20
2023-05-10T02:30:57.836Z,9.20
2023-05-10T02:33:27.960Z,9.17
2023-05-10T02:35:57.732Z,9.17
2023-05-10T02:38:27.962Z,9.16
2023-05-10T02:40:57.762Z,9.15
2023-05-10T02:43:26.949Z,9.12
2023-05-10T02:45:55.512Z,9.00
2023-05-10T02:48:23.684Z,9.10
2023-05-10T02:50:53.580Z,9.09
2023-05-10T02:53:32.881Z,9.08
2023-05-10T02:56:05.453Z,9.01
2023-05-10T02:58:34.352Z,9.08
2023-05-10T03:01:02.600Z,9.09
2023-05-10T03:03:30.725Z,9.09
2023-05-10T03:05:59.627Z,9.11
2023-05-10T03:08:30.497Z,9.13
2023-05-10T03:11:11.448Z,9.15
2023-05-10T03:13:55.414Z,9.09
2023-05-10T03:16:36.892Z,9.18
2023-05-10T03:19:12.349Z,9.21
2023-05-10T03:21:45.546Z,9.26
2023-05-10T03:24:16.701Z,9.28
2023-05-10T03:26:46.781Z,9.28
2023-05-10T03:29:18.749Z,9.32
2023-05-10T03:31:47.270Z,9.18
2023-05-10T03:34:15.917Z,9.26
2023-05-10T03:36:44.370Z,9.40
2023-05-10T03:39:12.593Z,9.42
2023-05-10T03:41:41.203Z,9.44
2023-05-10T03:44:10.438Z,9.46
2023-05-10T03:46:38.673Z,9.51
2023-05-10T03:49:07.037Z,9.55
2023-05-10T03:51:35.248Z,9.51
2023-05-10T03:54:03.362Z,9.53
2023-05-10T03:56:31.595Z,9.63
2023-05-10T03:58:59.971Z,9.68
2023-05-10T04:01:28.097Z,9.71
2023-05-10T04:03:56.529Z,9.69
2023-05-10T04:06:24.849Z,9.77
2023-05-10T04:08:53.119Z,9.80
2023-05-10T04:11:23.060Z,9.83
2023-05-10T04:13:51.240Z,9.84
2023-05-10T04:16:19.422Z,9.84
2023-05-10T04:18:47.679Z,9.86
2023-05-10T04:21:15.958Z,9.88
2023-05-10T04:23:44.131Z,9.90
2023-05-10T04:26:12.463Z,9.92
2023-05-10T04:28:40.613Z,9.92
2023-05-10T04:31:11.068Z,9.93
2023-05-10T04:33:39.225Z,9.98
2023-05-10T04:36:08.141Z,9.97
2023-05-10T04:38:36.924Z,10.02
2023-05-10T04:41:06.980Z,10.05
2023-05-10T04:43:35.851Z,10.08
2023-05-10T04:46:04.359Z,10.13
2023-05-10T04:48:32.735Z,10.12
2023-05-10T04:51:00.997Z,10.19
2023-05-10T04:53:29.165Z,10.26
2023-05-10T04:55:57.388Z,10.31
2023-05-10T04:58:25.589Z,10.37
2023-05-10T05:00:53.758Z,10.43
2023-05-10T05:03:21.996Z,10.50
2023-05-10T05:05:50.180Z,10.58
2023-05-10T05:08:18.312Z,10.62
2023-05-10T05:10:46.425Z,10.71
2023-05-10T05:13:14.675Z,10.83
2023-05-10T05:15:42.835Z,10.91
2023-05-10T05:18:11.060Z,10.97
2023-05-10T05:20:39.467Z,11.04
2023-05-10T05:23:07.621Z,11.11
2023-05-10T05:25:35.779Z,11.16
2023-05-10T05:28:04.070Z,11.24
2023-05-10T05:30:32.813Z,11.31
2023-05-10T05:33:01.179Z,11.41
2023-05-10T05:35:29.448Z,11.49
2023-05-10T05:37:57.538Z,11.56
2023-05-10T05:40:25.779Z,11.65
2023-05-10T05:42:54.018Z,11.75
2023-05-10T05:45:22.338Z,11.86
2023-05-10T05:47:50.521Z,11.99
2023-05-10T05:50:19.759Z,12.10
2023-05-10T05:52:47.990Z,12.20
2023-05-10T05:55:16.491Z,12.25
2023-05-10T05:57:44.897Z,12.30
2023-05-10T06:00:13.671Z,12.38
2023-05-10T06:02:41.867Z,12.45
2023-05-10T06:05:10.204Z,12.51
2023-05-10T06:07:38.391Z,12.64
2023-05-10T06:10:07.414Z,12.71
2023-05-10T06:12:36.063Z,12.77
2023-05-10T06:15:05.005Z,12.84
2023-05-10T06:17:33.200Z,12.93
2023-05-10T06:20:01.503Z,13.04
2023-05-10T06:22:29.754Z,13.15
2023-05-10T06:24:57.882Z,13.19
2023-05-10T06:27:26.006Z,13.23
2023-05-10T06:30:02.178Z,13.29
2023-05-10T06:32:37.753Z,13.39
2023-05-10T06:35:06.451Z,13.50
2023-05-10T06:37:35.562Z,13.62
2023-05-10T06:40:04.945Z,13.72
2023-05-10T06:42:33.410Z,13.80
2023-05-10T06:45:01.661Z,13.86
2023-05-10T06:47:29.810Z,13.97
2023-05-10T06:49:58.446Z,14.07
2023-05-10T06:52:26.800Z,14.14
2023-05-10T06:54:55.074Z,14.08
2023-05-10T06:57:31.323Z,14.18
2023-05-10T07:00:00.993Z,14.23
2023-05-10T07:02:29.468Z,14.29
2023-05-10T07:04:59.502Z,14.33
2023-05-10T07:07:30.014Z,14.40
2023-05-10T07:09:58.834Z,14.47
2023-05-10T07:12:27.323Z,14.58
2023-05-10T07:14:55.973Z,14.65
2023-05-10T07:17:24.146Z,14.73
2023-05-10T07:19:52.322Z,14.84
2023-05-10T07:22:20.547Z,16.26
2023-05-10T07:24:48.831Z,15.87
2023-05-10T07:27:17.109Z,15.26
2023-05-10T07:29:45.373Z,15.35
2023-05-10T07:32:13.505Z,16.21
2023-05-10T07:34:41.763Z,15.61
2023-05-10T07:37:09.866Z,16.32
2023-05-10T07:39:38.523Z,15.76
2023-05-10T07:42:06.844Z,15.51
2023-05-10T07:44:35.157Z,15.50
2023-05-10T07:47:03.732Z,15.43
2023-05-10T07:49:32.055Z,15.48
2023-05-10T07:52:00.324Z,15.90
2023-05-10T07:54:28.412Z,15.83
2023-05-10T07:56:56.712Z,15.79
2023-05-10T07:59:25.035Z,15.79
2023-05-10T08:01:53.298Z,15.79
2023-05-10T08:04:21.538Z,15.84
2023-05-10T08:06:49.760Z,15.86
2023-05-10T08:09:18.878Z,16.47
2023-05-10T08:11:47.040Z,16.89
2023-05-10T08:14:15.163Z,16.42
2023-05-10T08:16:43.494Z,16.41
2023-05-10T08:19:11.722Z,16.39
2023-05-10T08:21:41.584Z,16.37
2023-05-10T08:24:09.729Z,16.43
2023-05-10T08:26:38.078Z,16.47
2023-05-10T08:29:06.464Z,17.35
2023-05-10T08:31:34.840Z,16.87
2023-05-10T08:34:03.164Z,16.87
2023-05-10T08:36:31.242Z,16.96
2023-05-10T08:38:59.705Z,16.99
2023-05-10T08:41:28.395Z,16.90
2023-05-10T08:43:56.776Z,16.95
2023-05-10T08:46:24.993Z,18.10
2023-05-10T08:48:55.388Z,17.31
2023-05-10T08:51:27.882Z,17.12
2023-05-10T08:53:56.399Z,17.13
2023-05-10T08:56:25.190Z,17.21
2023-05-10T08:58:53.893Z,17.33
2023-05-10T09:01:22.948Z,17.49
2023-05-10T09:03:52.001Z,17.71
2023-05-10T09:06:20.719Z,18.20
2023-05-10T09:08:49.242Z,18.70
2023-05-10T09:11:18.479Z,18.35
2023-05-10T09:13:49.253Z,18.30
2023-05-10T09:16:21.957Z,18.32
2023-05-10T09:18:50.948Z,19.18
2023-05-10T09:21:21.033Z,19.00
2023-05-10T09:23:51.330Z,19.04
2023-05-10T09:26:23.914Z,19.19
2023-05-10T09:29:00.120Z,19.39
2023-05-10T09:31:57.670Z,19.66
2023-05-10T09:34:33.444Z,20.35
2023-05-10T09:37:03.739Z,20.10
2023-05-10T09:39:33.627Z,20.14
2023-05-10T09:42:04.999Z,20.23
2023-05-10T09:44:34.594Z,20.39
2023-05-10T09:47:03.949Z,20.44
2023-05-10T09:49:32.202Z,20.48
2023-05-10T09:52:05.706Z,20.63
2023-05-10T09:54:34.575Z,20.91
2023-05-10T09:57:03.285Z,21.07
2023-05-10T09:59:31.507Z,21.04
2023-05-10T10:02:01.781Z,21.09
2023-05-10T10:04:30.234Z,21.06
2023-05-10T10:07:05.143Z,21.20
2023-05-10T10:09:34.869Z,21.41
2023-05-10T10:12:03.885Z,21.62
2023-05-10T10:14:32.010Z,21.51
2023-05-10T10:19:38.113Z,21.77
2023-05-10T10:22:07.033Z,21.73
2023-05-10T10:24:35.457Z,21.63
2023-05-10T10:27:37.182Z,21.70
2023-05-10T10:30:18.160Z,21.78
2023-05-10T10:32:49.467Z,21.84
2023-05-10T10:35:17.959Z,21.95
2023-05-10T10:37:48.036Z,22.19
2023-05-10T10:40:34.688Z,22.31
2023-05-10T10:43:22.075Z,22.43
2023-05-10T10:46:15.380Z,22.69
2023-05-10T10:48:52.725Z,22.75
2023-05-10T10:51:21.095Z,22.64
2023-05-10T10:53:49.476Z,22.58
2023-05-10T10:56:24.736Z,22.71
2023-05-10T10:58:54.340Z,22.98
2023-05-10T11:01:22.511Z,23.06
2023-05-10T11:04:05.617Z,23.74
2023-05-10T11:06:36.032Z,23.28
2023-05-10T11:09:12.751Z,23.14
2023-05-10T11:11:56.490Z,23.37
2023-05-10T11:14:24.827Z,23.60
2023-05-10T11:16:53.066Z,23.46
2023-05-10T11:19:21.332Z,23.61
2023-05-10T11:21:50.900Z,23.71
2023-05-10T11:24:21.773Z,23.66
2023-05-10T11:26:53.187Z,23.58
2023-05-10T11:29:21.532Z,23.73
2023-05-10T11:31:50.710Z,23.87
2023-05-10T11:34:34.773Z,24.04
2023-05-10T11:37:03.124Z,24.01
2023-05-10T11:39:32.974Z,23.93
2023-05-10T11:42:01.415Z,23.75
2023-05-10T11:44:35.942Z,23.81
2023-05-10T11:47:04.397Z,23.86
2023-05-10T11:49:32.675Z,24.12
2023-05-10T11:52:08.368Z,24.06
2023-05-10T11:54:37.009Z,23.94
2023-05-10T11:57:05.586Z,24.04
2023-05-10T11:59:33.755Z,24.10
2023-05-10T12:02:02.183Z,24.15
2023-05-10T12:04:31.327Z,24.32
2023-05-10T12:06:59.920Z,24.19
2023-05-10T12:09:42.784Z,23.96
2023-05-10T12:12:18.009Z,23.77
2023-05-10T12:14:51.446Z,24.53
2023-05-10T12:17:19.405Z,24.43
2023-05-10T12:19:48.300Z,24.24
2023-05-10T12:22:16.371Z,24.25
2023-05-10T12:24:46.534Z,24.09
2023-05-10T12:27:34.032Z,24.17
2023-05-10T12:30:03.667Z,24.26
2023-05-10T12:32:42.662Z,24.34
2023-05-10T12:35:10.990Z,24.29
2023-05-10T12:37:41.886Z,24.02
2023-05-10T12:40:14.518Z,23.76
2023-05-10T12:42:42.952Z,23.56
2023-05-10T12:45:11.518Z,23.68
2023-05-10T12:47:42.205Z,23.89
2023-05-10T12:50:12.357Z,23.81
2023-05-10T12:52:40.970Z,23.98
2023-05-10T12:55:09.476Z,24.14
2023-05-10T12:57:37.686Z,24.44
2023-05-10T13:00:06.672Z,24.50
2023-05-10T13:02:34.876Z,24.37
2023-05-10T13:05:03.072Z,24.26
2023-05-10T13:07:31.255Z,24.29
2023-05-10T13:09:59.367Z,24.26
2023-05-10T13:12:27.430Z,24.37
2023-05-10T13:14:55.442Z,24.51
2023-05-10T13:17:23.831Z,24.65
2023-05-10T13:19:51.893Z,24.80
2023-05-10T13:22:28.790Z,24.81
2023-05-10T13:25:05.192Z,24.74
2023-05-10T13:27:33.317Z,24.81
2023-05-10T13:30:01.616Z,24.71
2023-05-10T13:32:30.230Z,24.60
2023-05-10T13:34:58.391Z,24.27
2023-05-10T13:37:26.600Z,24.16
2023-05-10T13:39:54.667Z,24.25
2023-05-10T13:42:25.912Z,24.34
2023-05-10T13:44:54.248Z,24.39
2023-05-10T13:47:23.719Z,24.31
2023-05-10T13:49:51.813Z,24.23
2023-05-10T13:52:20.123Z,24.27
2023-05-10T13:54:48.269Z,24.15
2023-05-10T13:57:17.842Z,23.97
2023-05-10T13:59:45.979Z,24.47
2023-05-10T14:02:14.312Z,24.04
2023-05-10T14:04:42.483Z,24.09
2023-05-10T14:07:11.239Z,24.11
2023-05-10T14:09:39.327Z,24.13
2023-05-10T14:12:07.471Z,24.22
2023-05-10T14:14:35.724Z,24.17
2023-05-10T14:17:03.821Z,23.99
2023-05-10T14:19:33.618Z,23.95
2023-05-10T14:22:01.793Z,24.15
2023-05-10T14:24:29.863Z,24.13
2023-05-10T14:26:58.207Z,24.11
2023-05-10T14:29:26.553Z,24.12
2023-05-10T14:31:54.693Z,24.27
2023-05-10T14:34:22.930Z,24.36
2023-05-10T14:36:51.484Z,24.34
2023-05-10T14:39:19.577Z,24.18
2023-05-10T14:41:48.332Z,24.15
2023-05-10T14:44:16.558Z,24.07
2023-05-10T14:46:44.738Z,23.94
2023-05-10T14:49:13.175Z,23.76
2023-05-10T14:51:41.455Z,23.62
2023-05-10T14:54:09.582Z,23.79
2023-05-10T14:56:38.929Z,23.96
2023-05-10T14:59:07.073Z,23.88
2023-05-10T15:01:38.665Z,23.92
2023-05-10T15:04:07.279Z,24.10
2023-05-10T15:06:36.367Z,24.01
2023-05-10T15:09:04.847Z,23.92
2023-05-10T15:11:33.216Z,23.81
2023-05-10T15:14:02.823Z,23.76
2023-05-10T15:16:32.282Z,23.87
2023-05-10T15:19:02.413Z,23.97
2023-05-10T15:21:36.319Z,23.96
2023-05-10T15:24:04.609Z,23.94
2023-05-10T15:26:32.772Z,23.98
2023-05-10T15:29:00.994Z,23.98
2023-05-10T15:31:29.235Z,23.99
2023-05-10T15:34:00.464Z,23.85
2023-05-10T15:36:28.531Z,23.78
2023-05-10T15:38:56.945Z,23.71
2023-05-10T15:41:25.776Z,23.57
2023-05-10T15:43:54.765Z,23.45
2023-05-10T15:46:23.023Z,23.42
2023-05-10T15:48:51.123Z,23.49
2023-05-10T15:51:19.823Z,23.49
2023-05-10T15:54:05.257Z,23.55
2023-05-10T15:56:36.281Z,23.67
2023-05-10T15:59:06.155Z,23.47
2023-05-10T16:01:34.666Z,23.27
2023-05-10T16:04:02.990Z,23.16
2023-05-10T16:06:31.511Z,22.95
2023-05-10T16:08:59.816Z,22.72
2023-05-10T16:11:27.959Z,22.51
2023-05-10T16:13:56.171Z,22.35
2023-05-10T16:16:24.709Z,22.29
2023-05-10T16:18:53.357Z,22.19
2023-05-10T16:21:21.597Z,21.83
2023-05-10T16:23:49.778Z,21.40
2023-05-10T16:26:17.855Z,21.10
2023-05-10T16:28:47.006Z,20.80
2023-05-10T16:31:15.455Z,20.56
2023-05-10T16:33:43.803Z,20.37
2023-05-10T16:36:12.045Z,20.22
2023-05-10T16:38:40.349Z,20.06
2023-05-10T16:41:08.746Z,19.89
2023-05-10T16:43:36.898Z,19.74
2023-05-10T16:46:10.467Z,19.60
2023-05-10T16:48:39.259Z,19.42
2023-05-10T16:51:08.006Z,19.29
2023-05-10T16:53:36.491Z,19.16
2023-05-10T16:56:04.731Z,19.02
2023-05-10T16:58:32.954Z,18.86
2023-05-10T17:01:01.169Z,18.76
2023-05-10T17:03:29.455Z,18.70
2023-05-10T17:05:59.087Z,18.62
2023-05-10T17:08:27.371Z,18.57
2023-05-10T17:10:56.431Z,18.53
2023-05-10T17:13:24.611Z,18.46
2023-05-10T17:15:53.359Z,18.39
2023-05-10T17:18:21.700Z,18.31
2023-05-10T17:20:50.773Z,18.27
2023-05-10T17:23:18.933Z,18.22
2023-05-10T17:25:47.250Z,18.16
2023-05-10T17:28:15.474Z,18.11
2023-05-10T17:30:44.627Z,18.05
2023-05-10T17:33:12.898Z,17.99
2023-05-10T17:35:41.063Z,17.93
2023-05-10T17:38:09.250Z,17.82
2023-05-10T17:40:40.664Z,17.81
2023-05-10T17:43:08.821Z,17.76
2023-05-10T17:45:36.961Z,17.70
2023-05-10T17:48:05.158Z,17.63
2023-05-10T17:50:33.880Z,17.57
2023-05-10T17:53:03.013Z,17.50
2023-05-10T17:55:31.385Z,17.43
2023-05-10T17:58:00.136Z,17.36
2023-05-10T18:00:28.482Z,17.30
2023-05-10T18:02:56.635Z,17.24
2023-05-10T18:05:24.832Z,17.17
2023-05-10T18:07:53.050Z,17.03
2023-05-10T18:10:21.292Z,17.04
2023-05-10T18:12:50.894Z,16.99
2023-05-10T18:15:19.192Z,16.95
2023-05-10T18:17:49.761Z,16.89
2023-05-10T18:20:17.995Z,16.83
2023-05-10T18:22:46.154Z,16.77
2023-05-10T18:25:14.375Z,16.67
2023-05-10T18:27:42.920Z,16.66
2023-05-10T18:30:12.651Z,16.59
2023-05-10T18:32:41.037Z,16.52
2023-05-10T18:35:09.697Z,16.44
2023-05-10T18:37:38.966Z,16.36
2023-05-10T18:40:14.412Z,16.29
2023-05-10T18:42:42.613Z,16.16
2023-05-10T18:45:11.743Z,16.16
2023-05-10T18:47:39.876Z,16.10
2023-05-10T18:50:08.514Z,16.03
2023-05-10T18:52:39.611Z,15.96
2023-05-10T18:55:08.718Z,15.89
2023-05-10T18:57:41.459Z,15.82
2023-05-10T19:00:12.437Z,15.74
2023-05-10T19:02:41.310Z,15.69
2023-05-10T19:05:09.923Z,15.61
2023-05-10T19:07:38.357Z,15.58
2023-05-10T19:10:07.083Z,15.46
2023-05-10T19:12:35.516Z,15.47
2023-05-10T19:15:03.923Z,15.44
2023-05-10T19:17:32.330Z,15.41
2023-05-10T19:20:02.716Z,15.36
2023-05-10T19:22:47.107Z,15.31
2023-05-10T19:25:21.038Z,15.16
2023-05-10T19:27:49.265Z,15.18
2023-05-10T19:30:17.646Z,15.14
2023-05-10T19:32:45.775Z,15.10
2023-05-10T19:35:14.054Z,15.06
2023-05-10T19:37:47.342Z,15.01
2023-05-10T19:40:16.052Z,14.95
2023-05-10T19:42:44.263Z,14.89
2023-05-10T19:45:12.584Z,14.86
2023-05-10T19:47:42.085Z,14.83
2023-05-10T19:50:12.488Z,14.77
2023-05-10T19:52:40.927Z,14.65
2023-05-10T19:55:09.433Z,14.68
2023-05-10T19:57:37.933Z,14.65
2023-05-10T20:00:06.853Z,14.61
2023-05-10T20:02:39.285Z,14.58
2023-05-10T20:05:07.976Z,14.55
2023-05-10T20:07:37.024Z,14.50
2023-05-10T20:10:05.520Z,14.48
2023-05-10T20:12:33.778Z,14.45
2023-05-10T20:15:01.942Z,14.43
2023-05-10T20:17:30.503Z,14.39
2023-05-10T20:19:58.735Z,14.35
2023-05-10T20:22:27.026Z,14.31
2023-05-10T20:24:56.327Z,14.24
2023-05-10T20:27:24.806Z,14.21
2023-05-10T20:29:53.462Z,14.18
2023-05-10T20:32:21.599Z,14.14
2023-05-10T20:34:50.113Z,14.09
2023-05-10T20:37:18.324Z,14.04
2023-05-10T20:39:48.435Z,14.01
2023-05-10T20:42:18.071Z,13.97
2023-05-10T20:44:46.152Z,13.93
2023-05-10T20:47:18.206Z,13.90
2023-05-10T20:49:46.404Z,13.84
2023-05-10T20:52:14.519Z,13.80
2023-05-10T20:54:42.614Z,13.77
2023-05-10T20:57:12.918Z,13.75
2023-05-10T20:59:41.104Z,13.65
2023-05-10T21:02:09.359Z,13.67
2023-05-10T21:04:37.529Z,13.63
2023-05-10T21:07:05.761Z,13.59
2023-05-10T21:09:35.286Z,13.56
2023-05-10T21:12:03.525Z,13.54
2023-05-10T21:14:31.737Z,13.51
2023-05-10T21:16:59.945Z,13.49
2023-05-10T21:19:28.092Z,13.46
2023-05-10T21:21:57.413Z,13.44
2023-05-10T21:24:25.931Z,13.38
2023-05-10T21:26:54.084Z,13.38
2023-05-10T21:29:22.379Z,13.34
2023-05-10T21:31:50.677Z,13.33
2023-05-10T21:34:19.014Z,13.29
2023-05-10T21:36:47.130Z,13.24
2023-05-10T21:39:15.296Z,13.21
2023-05-10T21:41:43.402Z,13.11
2023-05-10T21:44:11.725Z,13.16
2023-05-10T21:46:39.776Z,13.13
2023-05-10T21:49:08.297Z,13.11
2023-05-10T21:51:36.439Z,13.09
2023-05-10T21:54:04.789Z,13.06
2023-05-10T21:56:32.961Z,13.03
2023-05-10T21:59:01.248Z,13.00
2023-05-10T22:01:29.482Z,12.97
2023-05-10T22:03:57.652Z,12.94
2023-05-10T22:06:25.837Z,12.92
2023-05-10T22:08:53.896Z,12.89
2023-05-10T22:11:22.101Z,12.83
2023-05-10T22:13:50.262Z,12.83
2023-05-10T22:16:18.373Z,12.82
2023-05-10T22:18:46.745Z,12.80
2023-05-10T22:21:14.990Z,12.78
2023-05-10T22:23:43.509Z,12.77
2023-05-10T22:26:12.064Z,12.75
2023-05-10T22:28:40.179Z,12.71
2023-05-10T22:31:11.951Z,12.69
2023-05-10T22:33:40.434Z,12.65
2023-05-10T22:36:08.826Z,12.61
2023-05-10T22:38:37.677Z,12.58
2023-05-10T22:41:05.823Z,12.54
2023-05-10T22:43:34.289Z,12.52
2023-05-10T22:46:02.387Z,12.51
2023-05-10T22:48:34.382Z,12.48
2023-05-10T22:51:02.629Z,12.43
2023-05-10T22:53:30.974Z,12.37
2023-05-10T22:55:59.250Z,12.35
2023-05-10T22:58:27.562Z,12.29
2023-05-10T23:00:55.770Z,12.26
2023-05-10T23:03:24.885Z,12.21
2023-05-10T23:05:53.055Z,12.18
2023-05-10T23:08:21.372Z,12.13
2023-05-10T23:10:49.556Z,12.08
2023-05-10T23:13:18.909Z,12.04
2023-05-10T23:15:47.333Z,12.02
2023-05-10T23:18:15.701Z,11.97
2023-05-10T23:20:44.508Z,11.96
2023-05-10T23:23:12.676Z,11.92
2023-05-10T23:25:40.831Z,11.88
2023-05-10T23:28:08.960Z,11.83
2023-05-10T23:30:37.064Z,11.78
2023-05-10T23:33:05.197Z,11.75
2023-05-10T23:35:33.297Z,11.69
2023-05-10T23:38:02.177Z,11.68
2023-05-10T23:40:30.341Z,11.66
2023-05-10T23:42:58.419Z,11.63
2023-05-10T23:45:26.583Z,11.59
2023-05-10T23:47:54.749Z,11.56
2023-05-10T23:50:23.104Z,11.52
2023-05-10T23:52:51.324Z,11.48
2023-05-10T23:55:19.468Z,11.46
2023-05-10T23:57:47.540Z,11.43
